createdAt,value
2022-09-28T00:01:16.122Z,41.88
2022-09-28T00:03:44.273Z,41.78
2022-09-28T00:06:16.895Z,45.05
2022-09-28T00:08:44.511Z,36.90
2022-09-28T00:11:13.845Z,34.50
2022-09-28T00:13:41.645Z,38.67
2022-09-28T00:16:13.864Z,39.90
2022-09-28T00:18:42.079Z,34.05
2022-09-28T00:21:17.317Z,42.55
2022-09-28T00:23:59.579Z,37.72
2022-09-28T00:26:27.563Z,36.95
2022-09-28T00:28:55.524Z,32.80
2022-09-28T00:31:24.997Z,37.35
2022-09-28T00:33:52.976Z,38.95
2022-09-28T00:36:21.996Z,46.90
2022-09-28T00:38:49.793Z,40.58
2022-09-28T00:41:18.528Z,37.92
2022-09-28T00:43:46.286Z,38.55
2022-09-28T00:46:16.215Z,37.55
2022-09-28T00:48:53.769Z,32.47
2022-09-28T00:51:23.150Z,38.10
2022-09-28T00:53:51.848Z,31.95
2022-09-28T00:56:22.413Z,32.88
2022-09-28T00:58:51.755Z,33.85
2022-09-28T01:01:19.854Z,39.33
2022-09-28T01:03:48.841Z,39.80
2022-09-28T01:06:18.843Z,44.55
2022-09-28T01:08:51.588Z,31.63
2022-09-28T01:11:19.749Z,32.35
2022-09-28T01:13:47.877Z,33.13
2022-09-28T01:16:21.120Z,36.22
2022-09-28T01:18:55.834Z,34.60
2022-09-28T01:21:24.060Z,36.65
2022-09-28T01:24:03.321Z,33.10
2022-09-28T01:26:53.229Z,30.27
2022-09-28T01:29:27.369Z,36.63
2022-09-28T01:31:57.835Z,29.00
2022-09-28T01:34:28.781Z,30.33
2022-09-28T01:36:58.254Z,34.60
2022-09-28T01:39:30.122Z,31.23
2022-09-28T01:42:01.896Z,36.33
2022-09-28T01:44:31.255Z,33.97
2022-09-28T01:47:04.375Z,28.67
2022-09-28T01:49:35.378Z,32.85
2022-09-28T01:52:06.781Z,35.88
2022-09-28T01:54:38.067Z,34.25
2022-09-28T01:57:14.828Z,31.20
2022-09-28T01:59:45.486Z,26.90
2022-09-28T02:02:17.197Z,30.27
2022-09-28T02:04:46.794Z,34.88
2022-09-28T02:07:17.235Z,30.52
2022-09-28T02:09:47.281Z,29.75
2022-09-28T02:12:19.623Z,33.65
2022-09-28T02:14:48.543Z,32.30
2022-09-28T02:17:17.320Z,34.05
2022-09-28T02:19:45.372Z,34.90
2022-09-28T02:22:23.194Z,33.63
2022-09-28T02:24:54.941Z,33.92
2022-09-28T02:27:30.288Z,38.95
2022-09-28T02:29:57.954Z,29.48
2022-09-28T02:32:27.191Z,34.40
2022-09-28T02:34:55.999Z,37.55
2022-09-28T02:37:23.677Z,31.48
2022-09-28T02:39:51.447Z,34.67
2022-09-28T02:42:23.610Z,39.80
2022-09-28T02:45:01.377Z,29.17
2022-09-28T02:47:36.303Z,31.40
2022-09-28T02:50:09.189Z,34.47
2022-09-28T02:52:49.073Z,31.42
2022-09-28T02:55:21.193Z,29.15
2022-09-28T02:57:57.417Z,30.92
2022-09-28T03:00:26.703Z,32.20
2022-09-28T03:03:00.361Z,38.10
2022-09-28T03:05:33.078Z,36.72
2022-09-28T03:08:02.199Z,31.33
2022-09-28T03:10:33.641Z,37.00
2022-09-28T03:13:02.772Z,34.53
2022-09-28T03:15:32.579Z,34.10
2022-09-28T03:18:00.501Z,33.75
2022-09-28T03:20:29.027Z,32.42
2022-09-28T03:23:20.127Z,31.65
2022-09-28T03:25:44.386Z,35.67
2022-09-28T03:28:11.987Z,36.72
2022-09-28T03:30:41.798Z,34.83
2022-09-28T03:33:09.434Z,37.20
2022-09-28T03:35:37.033Z,37.45
2022-09-28T03:38:05.713Z,37.55
2022-09-28T03:40:33.474Z,36.10
2022-09-28T03:43:01.247Z,33.08
2022-09-28T03:45:29.054Z,35.95
2022-09-28T03:47:58.094Z,42.30
2022-09-28T03:50:26.070Z,37.78
2022-09-28T03:52:54.343Z,36.50
2022-09-28T03:55:21.932Z,36.92
2022-09-28T03:57:54.203Z,40.70
2022-09-28T04:00:21.949Z,36.08
2022-09-28T04:02:49.596Z,35.80
2022-09-28T04:05:18.683Z,39.50
2022-09-28T04:07:46.314Z,34.55
2022-09-28T04:10:13.964Z,38.28
2022-09-28T04:12:41.593Z,38.35
2022-09-28T04:15:09.717Z,37.22
2022-09-28T04:17:40.127Z,37.80
2022-09-28T04:20:09.093Z,33.55
2022-09-28T04:22:38.383Z,44.58
2022-09-28T04:25:06.325Z,39.10
2022-09-28T04:27:51.486Z,32.88
2022-09-28T04:30:19.126Z,35.55
2022-09-28T04:32:47.172Z,36.60
2022-09-28T04:35:14.980Z,37.30
2022-09-28T04:37:44.009Z,40.17
2022-09-28T04:40:11.878Z,37.58
2022-09-28T04:42:39.558Z,38.50
2022-09-28T04:45:07.945Z,35.15
2022-09-28T04:47:35.650Z,50.72
2022-09-28T04:50:03.315Z,38.83
2022-09-28T04:52:30.923Z,37.40
2022-09-28T04:54:59.913Z,33.85
2022-09-28T04:57:27.556Z,27.58
2022-09-28T04:59:55.177Z,39.13
2022-09-28T05:02:22.877Z,35.92
2022-09-28T05:04:50.489Z,31.77
2022-09-28T05:07:18.082Z,32.35
2022-09-28T05:09:45.687Z,32.95
2022-09-28T05:12:14.856Z,35.45
2022-09-28T05:14:42.460Z,29.85
2022-09-28T05:17:10.951Z,33.20
2022-09-28T05:19:38.604Z,34.67
2022-09-28T05:22:08.469Z,33.83
2022-09-28T05:24:36.134Z,36.25
2022-09-28T05:27:03.739Z,31.50
2022-09-28T05:29:32.899Z,36.97
2022-09-28T05:32:01.671Z,35.30
2022-09-28T05:34:29.794Z,31.67
2022-09-28T05:36:57.489Z,32.13
2022-09-28T05:39:25.175Z,32.30
2022-09-28T05:41:52.771Z,33.25
2022-09-28T05:44:20.359Z,28.45
2022-09-28T05:46:49.309Z,32.63
2022-09-28T05:49:16.924Z,30.15
2022-09-28T05:51:44.708Z,30.02
2022-09-28T05:54:12.463Z,32.35
2022-09-28T05:56:40.092Z,31.77
2022-09-28T05:59:07.740Z,29.75
2022-09-28T06:01:35.506Z,30.33
2022-09-28T06:04:04.510Z,26.85
2022-09-28T06:06:32.114Z,33.25
2022-09-28T06:08:59.740Z,33.08
2022-09-28T06:11:27.983Z,33.13
2022-09-28T06:13:56.131Z,31.08
2022-09-28T06:16:24.260Z,28.88
2022-09-28T06:18:51.905Z,32.47
2022-09-28T06:21:23.311Z,34.40
2022-09-28T06:23:50.923Z,30.13
2022-09-28T06:26:18.684Z,35.67
2022-09-28T06:28:46.389Z,30.38
2022-09-28T06:31:14.108Z,29.27
2022-09-28T06:33:42.826Z,29.17
2022-09-28T06:36:10.733Z,28.20
2022-09-28T06:38:39.716Z,28.65
2022-09-28T06:41:07.485Z,29.02
2022-09-28T06:43:35.139Z,28.77
2022-09-28T06:46:03.017Z,25.23
2022-09-28T06:48:31.887Z,27.33
2022-09-28T06:50:59.587Z,31.83
2022-09-28T06:53:28.290Z,28.30
2022-09-28T06:55:58.008Z,37.03
2022-09-28T06:58:28.273Z,26.95
2022-09-28T07:00:58.748Z,30.27
2022-09-28T07:03:26.581Z,25.52
2022-09-28T07:05:55.452Z,30.40
2022-09-28T07:08:24.848Z,35.13
2022-09-28T07:10:56.311Z,31.77
2022-09-28T07:16:13.692Z,27.67
2022-09-28T07:18:42.314Z,27.63
2022-09-28T07:21:20.691Z,32.65
2022-09-28T07:23:54.320Z,30.85
2022-09-28T07:26:24.333Z,29.33
2022-09-28T07:28:55.964Z,31.38
2022-09-28T07:31:25.314Z,30.38
2022-09-28T07:33:54.095Z,32.47
2022-09-28T07:36:22.912Z,29.50
2022-09-28T07:38:50.638Z,25.85
2022-09-28T07:41:22.579Z,29.23
2022-09-28T07:43:50.973Z,26.25
2022-09-28T07:46:20.841Z,30.38
2022-09-28T07:48:49.635Z,30.58
2022-09-28T07:51:19.979Z,30.40
2022-09-28T07:53:48.428Z,30.27
2022-09-28T07:56:19.123Z,26.40
2022-09-28T07:58:47.921Z,28.75
2022-09-28T08:01:16.755Z,27.77
2022-09-28T08:03:48.080Z,32.42
2022-09-28T08:06:17.287Z,31.88
2022-09-28T08:08:45.678Z,27.92
2022-09-28T08:11:13.727Z,32.40
2022-09-28T08:13:41.519Z,26.73
2022-09-28T08:16:09.108Z,27.27
2022-09-28T08:18:37.228Z,25.67
2022-09-28T08:21:24.256Z,23.55
2022-09-28T08:23:51.919Z,25.75
2022-09-28T08:26:19.944Z,23.70
2022-09-28T08:28:47.960Z,20.00
2022-09-28T08:31:15.689Z,22.83
2022-09-28T08:33:43.361Z,22.25
2022-09-28T08:36:12.376Z,21.00
2022-09-28T08:38:40.015Z,22.77
2022-09-28T08:41:12.799Z,19.75
2022-09-28T08:43:54.842Z,21.55
2022-09-28T08:46:26.434Z,20.08
2022-09-28T08:49:20.643Z,16.30
2022-09-28T08:51:49.759Z,19.20
2022-09-28T08:54:22.941Z,17.92
2022-09-28T08:56:52.957Z,16.98
2022-09-28T08:59:22.130Z,17.10
2022-09-28T09:01:53.800Z,14.70
2022-09-28T09:04:23.735Z,21.92
2022-09-28T09:07:02.863Z,18.50
2022-09-28T09:09:36.673Z,20.33
2022-09-28T09:12:07.780Z,19.35
2022-09-28T09:14:44.521Z,18.73
2022-09-28T09:17:18.546Z,19.98
2022-09-28T09:19:51.817Z,18.95
2022-09-28T09:22:26.082Z,18.27
2022-09-28T09:27:31.343Z,17.70
2022-09-28T09:30:04.584Z,17.67
2022-09-28T09:32:40.215Z,17.23
2022-09-28T09:35:30.574Z,17.80
2022-09-28T09:38:08.657Z,17.45
2022-09-28T09:40:45.826Z,19.00
2022-09-28T09:43:28.063Z,14.80
2022-09-28T09:46:04.395Z,16.02
2022-09-28T09:48:35.681Z,17.08
2022-09-28T09:51:06.014Z,16.15
2022-09-28T09:53:39.253Z,21.35
2022-09-28T09:56:09.369Z,15.80
2022-09-28T09:58:38.304Z,16.92
2022-09-28T10:01:08.541Z,17.13
2022-09-28T10:03:37.679Z,16.73
2022-09-28T10:06:07.445Z,20.83
2022-09-28T10:08:41.185Z,18.83
2022-09-28T10:11:10.901Z,17.58
2022-09-28T10:13:41.460Z,20.77
2022-09-28T10:16:09.411Z,15.60
2022-09-28T10:18:37.494Z,21.98
2022-09-28T10:21:05.537Z,17.73
2022-09-28T10:23:34.343Z,21.38
2022-09-28T10:26:07.144Z,18.55
2022-09-28T10:28:36.600Z,18.98
2022-09-28T10:31:19.105Z,22.08
2022-09-28T10:33:46.837Z,17.95
2022-09-28T10:36:15.969Z,15.10
2022-09-28T10:38:48.752Z,15.45
2022-09-28T10:41:18.414Z,15.80
2022-09-28T10:44:06.122Z,15.48
2022-09-28T10:46:34.761Z,18.33
2022-09-28T10:49:03.973Z,20.85
2022-09-28T10:51:41.314Z,20.00
2022-09-28T10:54:14.769Z,17.65
2022-09-28T10:56:44.020Z,20.90
2022-09-28T10:59:24.242Z,16.23
2022-09-28T11:01:55.404Z,17.83
2022-09-28T11:04:25.039Z,25.45
2022-09-28T11:06:52.851Z,16.63
2022-09-28T11:09:29.812Z,19.40
2022-09-28T11:12:00.740Z,14.40
2022-09-28T11:14:31.204Z,19.02
2022-09-28T11:17:18.076Z,18.85
2022-09-28T11:19:46.105Z,18.10
2022-09-28T11:22:28.915Z,19.55
2022-09-28T11:25:20.490Z,18.55
2022-09-28T11:27:58.237Z,15.88
2022-09-28T11:30:26.945Z,17.08
2022-09-28T11:32:56.186Z,31.63
2022-09-28T11:35:26.168Z,19.33
2022-09-28T11:38:03.140Z,15.40
2022-09-28T11:40:45.347Z,16.05
2022-09-28T11:43:19.146Z,17.95
2022-09-28T11:45:52.483Z,15.82
2022-09-28T11:48:23.175Z,24.20
2022-09-28T11:50:52.587Z,18.35
2022-09-28T11:53:23.483Z,18.90
2022-09-28T11:55:55.300Z,17.67
2022-09-28T11:58:27.333Z,20.10
2022-09-28T12:00:58.092Z,18.98
2022-09-28T12:03:28.252Z,20.33
2022-09-28T12:05:58.177Z,19.65
2022-09-28T12:08:28.749Z,22.80
2022-09-28T12:10:59.880Z,18.92
2022-09-28T12:13:31.175Z,24.63
2022-09-28T12:18:51.347Z,22.35
2022-09-28T12:21:32.579Z,23.48
2022-09-28T12:24:03.872Z,25.63
2022-09-28T12:26:37.288Z,23.33
2022-09-28T12:31:39.027Z,24.90
2022-09-28T12:34:06.830Z,23.55
2022-09-28T12:36:40.543Z,26.40
2022-09-28T12:39:27.487Z,30.08
2022-09-28T12:42:07.324Z,19.55
2022-09-28T12:44:48.089Z,22.88
2022-09-28T12:47:26.366Z,26.38
2022-09-28T12:52:56.969Z,21.75
2022-09-28T12:55:32.164Z,28.60
2022-09-28T12:58:07.816Z,25.92
2022-09-28T13:00:40.091Z,26.58
2022-09-28T13:03:35.131Z,26.45
2022-09-28T13:06:23.610Z,20.80
2022-09-28T13:09:01.306Z,25.58
2022-09-28T13:11:33.228Z,27.10
2022-09-28T13:14:11.417Z,27.80
2022-09-28T13:16:42.119Z,25.45
2022-09-28T13:19:14.066Z,24.00
2022-09-28T13:21:45.181Z,26.77
2022-09-28T13:24:31.475Z,28.77
2022-09-28T13:27:03.016Z,26.60
2022-09-28T13:29:30.716Z,29.75
2022-09-28T13:31:59.273Z,25.75
2022-09-28T13:34:28.380Z,25.85
2022-09-28T13:37:20.993Z,35.53
2022-09-28T13:39:52.315Z,30.92
2022-09-28T13:42:33.085Z,27.02
2022-09-28T13:45:18.129Z,28.63
2022-09-28T13:48:06.929Z,30.77
2022-09-28T13:50:39.720Z,29.20
2022-09-28T13:53:12.473Z,27.50
2022-09-28T13:55:51.048Z,26.92
2022-09-28T13:58:22.991Z,30.17
2022-09-28T14:00:52.420Z,32.75
2022-09-28T14:03:26.927Z,30.65
2022-09-28T14:06:05.477Z,31.15
2022-09-28T14:08:34.960Z,27.77
2022-09-28T14:11:24.645Z,28.38
2022-09-28T14:14:25.373Z,36.47
2022-09-28T14:16:58.884Z,29.15
2022-09-28T14:19:31.502Z,32.17
2022-09-28T14:22:07.485Z,29.48
2022-09-28T14:24:45.016Z,29.73
2022-09-28T14:27:33.496Z,31.10
2022-09-28T14:30:17.197Z,31.55
2022-09-28T14:32:49.632Z,33.90
2022-09-28T14:35:20.291Z,33.15
2022-09-28T14:38:07.256Z,29.70
2022-09-28T14:41:12.778Z,30.42
2022-09-28T14:43:59.042Z,24.10
2022-09-28T14:46:33.244Z,25.33
2022-09-28T14:52:02.309Z,112.97
2022-09-28T14:54:31.545Z,34.25
2022-09-28T14:57:08.264Z,26.42
2022-09-28T14:59:42.910Z,28.27
2022-09-28T15:02:17.483Z,22.40
2022-09-28T15:04:48.051Z,26.17
2022-09-28T15:07:27.169Z,25.25
2022-09-28T15:09:55.556Z,27.88
2022-09-28T15:12:25.263Z,23.60
2022-09-28T15:14:55.023Z,24.80
2022-09-28T15:17:24.949Z,24.45
2022-09-28T15:20:00.906Z,24.10
2022-09-28T15:22:30.296Z,28.42
2022-09-28T15:25:02.434Z,31.60
2022-09-28T15:27:35.577Z,29.50
2022-09-28T15:30:15.962Z,27.48
2022-09-28T15:32:45.007Z,27.65
2022-09-28T15:35:14.538Z,33.30
2022-09-28T15:37:42.483Z,38.45
2022-09-28T15:40:13.513Z,31.13
2022-09-28T15:42:41.184Z,30.70
2022-09-28T15:45:24.958Z,29.30
2022-09-28T15:47:58.462Z,34.90
2022-09-28T15:50:28.156Z,34.20
2022-09-28T15:52:57.535Z,36.25
2022-09-28T15:55:27.646Z,32.50
2022-09-28T15:58:08.927Z,37.30
2022-09-28T16:00:36.897Z,35.25
2022-09-28T16:03:24.476Z,39.03
2022-09-28T16:05:53.277Z,42.05
2022-09-28T16:08:25.988Z,46.13
2022-09-28T16:10:57.001Z,40.97
2022-09-28T16:13:25.858Z,43.40
2022-09-28T16:15:59.931Z,39.20
2022-09-28T16:21:21.580Z,48.72
2022-09-28T16:23:52.094Z,42.72
2022-09-28T16:26:29.755Z,46.45
2022-09-28T16:28:57.818Z,46.15
2022-09-28T16:31:29.042Z,50.53
2022-09-28T16:33:59.058Z,51.22
2022-09-28T16:36:29.934Z,57.38
2022-09-28T16:38:57.591Z,48.92
2022-09-28T16:41:27.940Z,47.58
2022-09-28T16:43:58.126Z,52.80
2022-09-28T16:46:29.840Z,52.03
2022-09-28T16:49:02.570Z,50.58
2022-09-28T16:51:31.940Z,52.25
2022-09-28T16:54:18.393Z,46.40
2022-09-28T16:56:46.085Z,49.67
2022-09-28T16:59:14.081Z,50.83
2022-09-28T17:01:43.908Z,48.92
2022-09-28T17:04:12.183Z,50.40
2022-09-28T17:06:42.482Z,51.00
2022-09-28T17:09:10.272Z,49.90
2022-09-28T17:11:38.333Z,47.08
2022-09-28T17:14:06.107Z,40.03
2022-09-28T17:19:22.930Z,41.45
2022-09-28T17:21:52.773Z,40.70
2022-09-28T17:24:20.945Z,19.15
2022-09-28T17:26:50.210Z,24.92
2022-09-28T17:29:20.259Z,13.85
2022-09-28T17:31:48.511Z,10.18
2022-09-28T17:34:16.906Z,9.93
2022-09-28T17:36:46.936Z,8.68
2022-09-28T17:39:16.675Z,6.97
2022-09-28T17:41:45.061Z,12.00
2022-09-28T17:44:29.408Z,7.90
2022-09-28T17:46:57.101Z,6.75
2022-09-28T17:49:24.910Z,7.75
2022-09-28T17:51:53.063Z,6.68
2022-09-28T17:54:23.385Z,8.23
2022-09-28T17:56:54.414Z,10.77
2022-09-28T17:59:23.109Z,10.27
2022-09-28T18:01:51.033Z,7.75
2022-09-28T18:04:47.294Z,7.95
2022-09-28T18:07:14.333Z,7.70
2022-09-28T18:09:44.144Z,8.02
2022-09-28T18:12:14.070Z,7.68
2022-09-28T18:14:46.945Z,9.40
2022-09-28T18:17:14.616Z,6.57
2022-09-28T18:19:44.002Z,8.45
2022-09-28T18:22:11.725Z,6.95
2022-09-28T18:24:39.470Z,7.53
2022-09-28T18:27:12.134Z,13.25
2022-09-28T18:29:41.604Z,7.63
2022-09-28T18:32:10.180Z,7.95
2022-09-28T18:34:38.112Z,6.72
2022-09-28T18:37:06.595Z,15.05
2022-09-28T18:39:35.992Z,15.15
2022-09-28T18:42:04.373Z,9.45
2022-09-28T18:44:35.002Z,12.93
2022-09-28T18:47:03.068Z,7.75
2022-09-28T18:49:31.356Z,9.75
2022-09-28T18:51:59.104Z,12.20
2022-09-28T18:54:27.965Z,6.47
2022-09-28T18:56:58.846Z,7.03
2022-09-28T18:59:26.617Z,10.40
2022-09-28T19:01:55.812Z,10.05
2022-09-28T19:04:23.881Z,14.90
2022-09-28T19:06:52.469Z,8.50
2022-09-28T19:09:21.806Z,9.48
2022-09-28T19:11:49.800Z,12.27
2022-09-28T19:14:20.739Z,13.00
2022-09-28T19:16:50.281Z,7.60
2022-09-28T19:19:20.803Z,9.60
2022-09-28T19:21:48.798Z,14.25
2022-09-28T19:24:23.816Z,9.18
2022-09-28T19:26:53.663Z,9.50
2022-09-28T19:29:23.208Z,13.63
2022-09-28T19:31:52.010Z,9.18
2022-09-28T19:34:24.604Z,9.23
2022-09-28T19:36:54.355Z,9.82
2022-09-28T19:39:21.991Z,9.20
2022-09-28T19:41:51.325Z,8.88
2022-09-28T19:44:25.614Z,9.63
2022-09-28T19:49:23.746Z,14.15
2022-09-28T19:54:44.223Z,9.60
2022-09-28T19:57:12.157Z,13.75
2022-09-28T19:59:47.493Z,11.02
2022-09-28T20:02:38.119Z,12.70
2022-09-28T20:05:08.346Z,8.70
2022-09-28T20:07:36.973Z,11.43
2022-09-28T20:10:04.982Z,8.95
2022-09-28T20:12:35.243Z,8.88
2022-09-28T20:15:03.209Z,14.15
2022-09-28T20:17:34.700Z,12.68
2022-09-28T20:20:03.536Z,11.38
2022-09-28T20:22:32.499Z,9.45
2022-09-28T20:25:03.258Z,10.68
2022-09-28T20:27:30.908Z,9.88
2022-09-28T20:29:59.259Z,10.68
2022-09-28T20:32:27.161Z,9.52
2022-09-28T20:34:59.498Z,9.68
2022-09-28T20:37:27.295Z,12.40
2022-09-28T20:40:01.809Z,11.45
2022-09-28T20:42:33.294Z,10.07
2022-09-28T20:45:00.915Z,11.70
2022-09-28T20:47:33.703Z,11.15
2022-09-28T20:50:01.374Z,11.80
2022-09-28T20:52:29.057Z,9.95
2022-09-28T20:54:56.708Z,9.23
2022-09-28T20:57:26.496Z,13.32
2022-09-28T20:59:54.967Z,9.50
2022-09-28T21:02:23.148Z,12.00
2022-09-28T21:04:51.033Z,11.18
2022-09-28T21:07:18.650Z,9.55
2022-09-28T21:09:46.244Z,8.85
2022-09-28T21:12:15.484Z,10.25
2022-09-28T21:14:44.541Z,8.90
2022-09-28T21:17:12.185Z,11.68
2022-09-28T21:19:39.827Z,19.10
2022-09-28T21:22:07.680Z,9.55
2022-09-28T21:24:35.394Z,8.48
2022-09-28T21:27:02.989Z,11.88
2022-09-28T21:29:30.646Z,11.05
2022-09-28T21:32:02.657Z,8.43
2022-09-28T21:34:30.274Z,16.42
2022-09-28T21:36:57.928Z,12.27
2022-09-28T21:39:25.666Z,10.73
2022-09-28T21:41:53.285Z,10.68
2022-09-28T21:44:21.039Z,11.35
2022-09-28T21:46:49.320Z,13.25
2022-09-28T21:49:18.433Z,12.55
2022-09-28T21:51:47.201Z,13.52
2022-09-28T21:54:15.154Z,14.38
2022-09-28T21:56:42.829Z,10.90
2022-09-28T21:59:10.499Z,14.05
2022-09-28T22:01:38.169Z,14.38
2022-09-28T22:04:06.006Z,11.43
2022-09-28T22:06:35.442Z,17.63
2022-09-28T22:09:04.252Z,14.55
2022-09-28T22:11:32.147Z,12.55
2022-09-28T22:14:00.787Z,14.95
2022-09-28T22:16:29.390Z,15.50
2022-09-28T22:18:57.424Z,15.90
2022-09-28T22:21:25.844Z,16.25
2022-09-28T22:23:57.387Z,15.68
2022-09-28T22:26:25.798Z,16.10
2022-09-28T22:28:54.146Z,22.63
2022-09-28T22:31:23.185Z,18.85
2022-09-28T22:33:52.257Z,17.30
2022-09-28T22:36:20.017Z,15.57
2022-09-28T22:38:48.038Z,14.55
2022-09-28T22:41:17.873Z,12.45
2022-09-28T22:43:45.560Z,12.18
2022-09-28T22:46:14.110Z,18.25
2022-09-28T22:48:42.439Z,18.95
2022-09-28T22:51:10.235Z,11.73
2022-09-28T22:53:39.798Z,11.80
2022-09-28T22:56:07.807Z,12.15
2022-09-28T22:58:37.070Z,12.23
2022-09-28T23:01:08.665Z,11.95
2022-09-28T23:03:36.449Z,9.82
2022-09-28T23:06:04.082Z,12.85
2022-09-28T23:08:32.218Z,11.45
2022-09-28T23:10:59.873Z,10.88
2022-09-28T23:13:27.606Z,11.52
2022-09-28T23:15:59.445Z,13.52
2022-09-28T23:18:28.870Z,11.38
2022-09-28T23:20:58.737Z,18.20
2022-09-28T23:23:26.647Z,13.05
2022-09-28T23:25:54.639Z,9.50
2022-09-28T23:28:23.363Z,12.13
2022-09-28T23:30:51.597Z,10.07
2022-09-28T23:33:24.687Z,9.77
2022-09-28T23:35:52.286Z,12.60
2022-09-28T23:38:20.029Z,12.45
2022-09-28T23:40:47.716Z,13.07
2022-09-28T23:43:15.484Z,10.15
2022-09-28T23:45:43.514Z,13.82
2022-09-28T23:48:11.337Z,10.88
2022-09-28T23:50:40.436Z,10.63
2022-09-28T23:53:08.131Z,10.45
2022-09-28T23:55:35.757Z,9.38
2022-09-28T23:58:03.373Z,11.50
